Time;durP1;ratioP1;P1;durP2;ratioP2;P2;SDS_P1;SDS_P2;PMS_P1;PMS_P2;Temp;Humidity;BMP_temperature;BMP_pressure;BME280_temperature;BME280_humidity;BME280_pressure;Samples;Min_cycle;Max_cycle;Signal;HPM_P1;HPM_P2
2023/12/04 00:00:46;;;;;;;27.50;14.13;;;;;;;0.24;100.00;101151.44;5106234;28;20030;-58
2023/12/04 00:03:11;;;;;;;19.93;12.40;;;;;;;0.33;100.00;101161.75;5108988;28;20053;-58
2023/12/04 00:05:37;;;;;;;24.77;12.97;;;;;;;0.38;100.00;101156.41;5106052;28;20031;-58
2023/12/04 00:08:02;;;;;;;24.37;13.23;;;;;;;0.40;100.00;101159.88;5105235;28;20110;-58
2023/12/04 00:10:28;;;;;;;21.90;13.77;;;;;;;0.43;100.00;101157.22;5091924;28;20024;-58
2023/12/04 00:12:56;;;;;;;25.13;14.20;;;;;;;0.42;100.00;101151.13;5096186;28;20024;-58
2023/12/04 00:15:21;;;;;;;22.87;13.13;;;;;;;0.37;100.00;101141.63;5110032;27;20043;-58
2023/12/04 00:17:47;;;;;;;25.00;14.23;;;;;;;0.39;100.00;101139.84;5090862;28;20028;-58
2023/12/04 00:20:12;;;;;;;23.90;13.30;;;;;;;0.39;100.00;101138.09;5104854;28;20028;-58
2023/12/04 00:22:37;;;;;;;23.03;12.40;;;;;;;0.43;100.00;101146.75;5089390;28;20031;-58
2023/12/04 00:25:04;;;;;;;21.33;12.83;;;;;;;0.39;100.00;101137.25;5101602;28;20072;-58
2023/12/04 00:27:30;;;;;;;17.83;11.83;;;;;;;0.39;100.00;101132.00;5092712;28;20051;-58
2023/12/04 00:29:58;;;;;;;20.50;12.87;;;;;;;0.38;100.00;101127.66;5104370;28;20045;-58
2023/12/04 00:32:24;;;;;;;22.90;13.70;;;;;;;0.35;100.00;101119.84;5092570;28;20118;-58
2023/12/04 00:34:49;;;;;;;24.10;13.73;;;;;;;0.31;100.00;101113.81;5106353;28;20111;-58
2023/12/04 00:37:14;;;;;;;21.53;12.33;;;;;;;0.38;100.00;101127.66;5075456;28;20038;-58
2023/12/04 00:39:40;;;;;;;19.57;12.43;;;;;;;0.37;100.00;101124.16;5089875;28;20019;-58
2023/12/04 00:42:05;;;;;;;21.83;12.67;;;;;;;0.37;100.00;101120.69;5111481;27;20030;-58
2023/12/04 00:44:31;;;;;;;26.30;14.17;;;;;;;0.35;100.00;101120.72;5090553;28;20028;-58
2023/12/04 00:46:58;;;;;;;18.43;11.90;;;;;;;0.34;100.00;101116.38;5109949;28;20023;-58
2023/12/04 00:49:26;;;;;;;24.43;13.63;;;;;;;0.35;100.00;101117.22;5104402;28;20032;-58
2023/12/04 00:51:51;;;;;;;20.63;12.70;;;;;;;0.39;100.00;101118.94;5087636;28;20024;-58
2023/12/04 00:54:17;;;;;;;19.03;12.43;;;;;;;0.36;100.00;101105.91;5097253;28;20497;-58
2023/12/04 00:56:42;;;;;;;22.93;13.80;;;;;;;0.37;100.00;101110.22;5112868;28;20038;-58
2023/12/04 00:59:09;;;;;;;21.27;13.20;;;;;;;0.34;100.00;101103.28;5108386;28;20098;-58
2023/12/04 01:01:40;;;;;;;21.43;12.13;;;;;;;0.38;100.00;101101.47;5103355;28;20059;-58
2023/12/04 01:04:05;;;;;;;21.20;12.30;;;;;;;0.39;100.00;101098.00;5116719;27;20075;-58
2023/12/04 01:06:31;;;;;;;19.50;11.97;;;;;;;0.35;100.00;101084.09;5103110;27;20089;-58
2023/12/04 01:08:56;;;;;;;23.30;13.03;;;;;;;0.39;100.00;101088.41;5101245;28;20020;-58
2023/12/04 01:11:23;;;;;;;16.20;10.43;;;;;;;0.41;100.00;101088.34;5105014;28;20027;-58
2023/12/04 01:13:49;;;;;;;22.00;12.73;;;;;;;0.40;100.00;101089.25;5105807;28;20059;-58
2023/12/04 01:16:17;;;;;;;21.70;13.40;;;;;;;0.40;100.00;101084.88;5082998;28;20032;-58
2023/12/04 01:18:42;;;;;;;23.07;12.50;;;;;;;0.41;100.00;101093.59;5089433;28;20028;-58
2023/12/04 01:21:08;;;;;;;20.20;12.03;;;;;;;0.37;100.00;101076.22;5104686;28;20027;-58
2023/12/04 01:23:35;;;;;;;24.27;12.63;;;;;;;0.43;100.00;101083.97;5087875;28;20081;-58
2023/12/04 01:26:01;;;;;;;22.83;12.70;;;;;;;0.48;100.00;101073.44;5107104;28;20103;-58
2023/12/04 01:28:27;;;;;;;21.73;12.37;;;;;;;0.47;100.00;101075.16;5108463;28;20062;-58
2023/12/04 01:30:52;;;;;;;20.67;12.80;;;;;;;0.47;100.00;101069.94;5104094;27;20450;-59
2023/12/04 01:33:20;;;;;;;18.83;11.80;;;;;;;0.49;100.00;101069.91;5090699;28;20169;-58
2023/12/04 01:35:45;;;;;;;14.77;10.20;;;;;;;0.48;100.00;101063.81;5096490;28;20403;-58
2023/12/04 01:38:10;;;;;;;19.80;12.03;;;;;;;0.37;100.00;101048.31;5089752;28;20026;-58
2023/12/04 01:40:36;;;;;;;20.20;11.73;;;;;;;0.45;100.00;101064.72;5088524;28;20074;-58
2023/12/04 01:43:03;;;;;;;20.40;13.27;;;;;;;0.49;100.00;101067.28;5089566;28;20084;-58
2023/12/04 01:45:29;;;;;;;20.93;11.87;;;;;;;0.49;100.00;101064.69;5104810;28;20050;-58
2023/12/04 01:47:55;;;;;;;20.60;12.60;;;;;;;0.51;100.00;101061.16;5106865;28;20032;-58
2023/12/04 01:50:23;;;;;;;21.40;13.17;;;;;;;0.53;100.00;101063.72;5106707;28;20027;-58
2023/12/04 01:52:49;;;;;;;22.30;12.13;;;;;;;0.54;100.00;101055.84;5088457;28;20440;-58
2023/12/04 01:55:16;;;;;;;18.70;10.63;;;;;;;0.52;100.00;101048.91;5106297;28;20031;-58
2023/12/04 01:57:41;;;;;;;17.37;10.87;;;;;;;0.54;100.00;101053.25;5108084;28;20464;-59
2023/12/04 02:00:11;;;;;;;22.73;12.27;;;;;;;0.54;100.00;101050.63;5090899;28;20028;-58
2023/12/04 02:02:40;;;;;;;19.63;12.27;;;;;;;0.53;100.00;101043.69;5104285;28;20044;-58
2023/12/04 02:05:07;;;;;;;18.93;10.60;;;;;;;0.50;100.00;101024.53;5091556;28;20020;-58
2023/12/04 02:07:33;;;;;;;21.07;11.33;;;;;;;0.55;100.00;101025.31;5108197;28;20047;-58
2023/12/04 02:09:59;;;;;;;20.50;12.17;;;;;;;0.58;100.00;101033.09;5101516;28;20052;-58
2023/12/04 02:12:24;;;;;;;20.27;11.57;;;;;;;0.58;100.00;101027.88;5083318;28;20441;-58
2023/12/04 02:14:51;;;;;;;19.60;12.07;;;;;;;0.53;100.00;101014.91;5102266;28;20563;-58
2023/12/04 02:17:16;;;;;;;20.07;11.57;;;;;;;0.60;100.00;101024.34;5106943;28;20027;-58
2023/12/04 02:19:42;;;;;;;19.13;10.20;;;;;;;0.57;100.00;101021.78;5103259;28;20064;-58
2023/12/04 02:22:08;;;;;;;17.70;11.47;;;;;;;0.57;100.00;101019.16;5076406;28;20110;-58
2023/12/04 02:24:34;;;;;;;18.27;10.73;;;;;;;0.58;100.00;101015.66;5107165;28;20601;-58
2023/12/04 02:27:10;;;;;;;22.37;11.10;;;;;;;0.59;100.00;101011.25;5104539;28;20117;-58
2023/12/04 02:29:44;;;;;;;15.67;11.23;;;;;;;0.58;100.00;101020.03;5092834;28;20026;-58
2023/12/04 02:32:14;;;;;;;16.33;10.70;;;;;;;0.57;100.00;101010.47;5104002;28;20478;-58
2023/12/04 02:34:42;;;;;;;14.97;9.60;;;;;;;0.57;100.00;101006.06;5092945;28;20030;-58
2023/12/04 02:37:09;;;;;;;18.63;11.23;;;;;;;0.56;100.00;101004.38;5091040;28;20031;-58
2023/12/04 02:39:36;;;;;;;22.07;10.63;;;;;;;0.60;100.00;101003.41;5083148;28;20023;-59
2023/12/04 02:42:01;;;;;;;16.97;10.57;;;;;;;0.61;100.00;100999.88;5105194;28;20023;-58
2023/12/04 02:44:27;;;;;;;19.00;12.30;;;;;;;0.56;100.00;100999.13;5087272;28;20024;-58
2023/12/04 02:46:52;;;;;;;17.40;10.80;;;;;;;0.59;100.00;100990.34;5104120;28;20077;-58
2023/12/04 02:49:18;;;;;;;15.53;10.17;;;;;;;0.58;100.00;100986.00;5088773;28;20427;-58
2023/12/04 02:51:43;;;;;;;17.07;10.77;;;;;;;0.56;100.00;100983.44;5089740;28;20391;-58
2023/12/04 02:54:08;;;;;;;13.77;9.43;;;;;;;0.57;100.00;100976.44;5103541;28;20027;-58
2023/12/04 02:56:34;;;;;;;19.33;11.13;;;;;;;0.60;100.00;100971.13;5084569;28;20026;-58
2023/12/04 02:58:59;;;;;;;16.47;10.47;;;;;;;0.52;100.00;100966.03;5069384;28;20357;-58
2023/12/04 03:01:25;;;;;;;18.87;11.23;;;;;;;0.59;100.00;100967.66;5088206;28;20032;-58
2023/12/04 03:03:50;;;;;;;18.57;10.13;;;;;;;0.61;100.00;100967.63;5107447;28;20449;-58
2023/12/04 03:06:16;;;;;;;16.13;11.07;;;;;;;0.58;100.00;100958.06;5103945;28;20055;-58
2023/12/04 03:08:42;;;;;;;17.33;10.87;;;;;;;0.54;100.00;100952.94;5102548;28;20384;-58
2023/12/04 03:11:07;;;;;;;17.97;10.13;;;;;;;0.58;100.00;100958.06;5082175;28;20111;-58
2023/12/04 03:13:34;;;;;;;17.97;11.67;;;;;;;0.59;100.00;100951.97;5102654;28;20111;-58
2023/12/04 03:15:59;;;;;;;16.50;9.77;;;;;;;0.58;100.00;100946.75;5093332;28;20484;-58
2023/12/04 03:18:30;;;;;;;19.70;11.00;;;;;;;0.56;100.00;100951.13;5106851;28;20027;-58
2023/12/04 03:21:43;;;;;;;16.80;9.90;;;;;;;0.56;100.00;100940.69;5101426;28;20085;-58
2023/12/04 03:24:09;;;;;;;13.87;9.87;;;;;;;0.56;100.00;100935.44;5099850;28;20082;-58
2023/12/04 03:26:35;;;;;;;18.20;10.53;;;;;;;0.53;100.00;100923.31;5101229;28;20388;-58
2023/12/04 03:29:00;;;;;;;17.57;10.67;;;;;;;0.58;100.00;100928.44;5104075;28;20035;-58
2023/12/04 03:31:26;;;;;;;14.23;10.03;;;;;;;0.55;99.60;100921.50;5099418;28;20028;-58
2023/12/04 03:33:51;;;;;;;16.63;10.77;;;;;;;0.54;100.00;100903.22;5087253;28;20047;-58
2023/12/04 03:36:16;;;;;;;15.73;10.23;;;;;;;0.59;100.00;100912.72;5095236;28;20020;-58
2023/12/04 03:38:42;;;;;;;13.43;9.00;;;;;;;0.54;100.00;100906.69;5107016;28;20451;-59
2023/12/04 03:41:15;;;;;;;17.50;9.83;;;;;;;0.60;99.52;100901.34;5110521;28;20020;-58
2023/12/04 03:43:41;;;;;;;17.07;10.27;;;;;;;0.59;99.79;100904.88;5106585;28;20061;-59
2023/12/04 03:46:08;;;;;;;14.07;9.13;;;;;;;0.61;99.43;100889.97;5090416;28;20036;-58
2023/12/04 03:48:34;;;;;;;16.00;10.63;;;;;;;0.60;98.88;100893.50;5088463;28;20024;-58
2023/12/04 03:50:59;;;;;;;15.63;10.57;;;;;;;0.54;98.79;100879.69;5109078;28;20089;-58
2023/12/04 03:53:26;;;;;;;15.23;9.60;;;;;;;0.62;98.66;100888.25;5091493;28;20079;-58
2023/12/04 03:55:51;;;;;;;15.90;9.77;;;;;;;0.62;99.66;100885.63;5093605;28;20031;-58
2023/12/04 03:58:17;;;;;;;16.57;9.90;;;;;;;0.62;99.41;100883.88;5100184;28;20027;-58
2023/12/04 04:00:43;;;;;;;17.43;9.73;;;;;;;0.63;98.89;100885.56;5108876;28;20351;-58
2023/12/04 04:03:09;;;;;;;13.30;8.77;;;;;;;0.61;99.21;100876.88;5109292;28;20496;-58
2023/12/04 04:05:35;;;;;;;15.03;9.73;;;;;;;0.63;99.34;100871.63;5059280;28;20074;-58
2023/12/04 04:08:00;;;;;;;13.90;9.00;;;;;;;0.64;98.99;100873.34;5106203;28;20020;-58
2023/12/04 04:10:26;;;;;;;15.23;10.40;;;;;;;0.59;98.93;100860.38;5087534;28;20115;-58
2023/12/04 04:12:51;;;;;;;15.20;10.27;;;;;;;0.61;98.72;100861.19;5082526;28;20054;-58
2023/12/04 04:15:16;;;;;;;16.10;9.73;;;;;;;0.64;98.92;100865.50;5105748;28;20020;-58
2023/12/04 04:17:44;;;;;;;15.67;11.17;;;;;;;0.58;99.30;100858.63;5104043;28;20078;-58
2023/12/04 04:20:11;;;;;;;14.70;10.37;;;;;;;0.63;99.24;100861.16;5105544;28;20415;-59
2023/12/04 04:22:38;;;;;;;19.27;11.13;;;;;;;0.58;99.83;100849.94;5090111;28;20103;-58
2023/12/04 04:25:10;;;;;;;15.80;9.47;;;;;;;0.57;99.59;100840.38;5108218;28;20028;-58
2023/12/04 04:27:35;;;;;;;18.83;10.73;;;;;;;0.65;99.25;100854.16;5106364;28;20035;-58
2023/12/04 04:30:02;;;;;;;14.83;9.73;;;;;;;0.66;99.09;100851.47;5080873;28;20039;-58
2023/12/04 04:32:27;;;;;;;16.07;10.13;;;;;;;0.65;99.18;100846.31;5105231;28;20038;-58
2023/12/04 04:34:52;;;;;;;17.50;11.17;;;;;;;0.65;98.80;100830.59;5105032;28;20032;-58
2023/12/04 04:37:19;;;;;;;13.17;9.70;;;;;;;0.65;98.21;100830.59;5108316;28;20543;-58
2023/12/04 04:39:44;;;;;;;18.87;10.60;;;;;;;0.65;98.89;100830.59;5106853;28;20036;-58
2023/12/04 04:42:10;;;;;;;16.23;10.13;;;;;;;0.62;99.14;100822.81;5107211;28;20035;-58
2023/12/04 04:44:37;;;;;;;13.50;9.37;;;;;;;0.70;98.77;100833.09;5093883;28;20028;-58
2023/12/04 04:47:03;;;;;;;17.83;10.57;;;;;;;0.61;98.92;100821.06;5107554;28;20471;-58
2023/12/04 04:49:28;;;;;;;14.87;10.70;;;;;;;0.66;98.95;100829.69;5089950;28;20112;-58
2023/12/04 04:51:54;;;;;;;15.20;10.87;;;;;;;0.65;98.96;100828.84;5089567;28;20168;-58
2023/12/04 04:54:19;;;;;;;17.27;11.27;;;;;;;0.64;98.73;100824.47;5105870;28;20053;-58
2023/12/04 04:56:45;;;;;;;12.87;10.67;;;;;;;0.61;98.71;100826.31;5108413;28;20058;-58
2023/12/04 04:59:10;;;;;;;18.30;11.47;;;;;;;0.61;99.03;100828.94;5105610;28;20042;-58
2023/12/04 05:01:36;;;;;;;18.70;10.37;;;;;;;0.62;99.29;100831.53;5111131;27;20168;-58
2023/12/04 05:04:02;;;;;;;16.40;9.50;;;;;;;0.60;99.27;100822.84;5102482;28;20050;-58
2023/12/04 05:06:28;;;;;;;15.10;10.87;;;;;;;0.64;98.72;100827.09;5090808;28;20028;-58
2023/12/04 05:08:53;;;;;;;16.40;10.50;;;;;;;0.65;98.76;100835.84;5106572;28;20122;-58
2023/12/04 05:11:18;;;;;;;14.43;10.10;;;;;;;0.67;98.83;100826.16;5104907;27;20035;-58
2023/12/04 05:13:47;;;;;;;14.37;9.43;;;;;;;0.59;99.18;100808.03;5089777;28;20053;-58
2023/12/04 05:16:13;;;;;;;13.73;9.43;;;;;;;0.66;98.80;100825.31;5086354;28;20057;-58
2023/12/04 05:18:39;;;;;;;15.50;10.10;;;;;;;0.62;98.97;100813.19;5088870;28;20031;-58
2023/12/04 05:21:09;;;;;;;14.47;9.23;;;;;;;0.61;98.70;100813.22;5093564;28;20115;-58
2023/12/04 05:23:34;;;;;;;;;;;;;;;0.63;98.63;100809.69;5102307;28;20016;-58
2023/12/04 05:26:00;;;;;;;13.43;9.70;;;;;;;0.63;98.46;100801.81;5108413;28;19911;-58
2023/12/04 05:28:28;;;;;;;16.53;10.50;;;;;;;0.58;98.91;100794.97;5101878;28;20035;-58
2023/12/04 05:30:54;;;;;;;17.07;9.83;;;;;;;0.59;98.48;100791.44;5105278;28;20096;-58
2023/12/04 05:33:19;;;;;;;12.67;9.73;;;;;;;0.59;98.65;100786.22;5104674;28;20059;-58
2023/12/04 05:35:46;;;;;;;17.97;11.63;;;;;;;0.56;98.90;100775.81;5085260;28;20464;-58
2023/12/04 05:38:11;;;;;;;16.17;9.93;;;;;;;0.58;98.90;100779.28;5091712;28;20391;-58
2023/12/04 05:40:37;;;;;;;18.77;11.10;;;;;;;0.52;98.06;100776.81;5105969;28;20107;-58
2023/12/04 05:43:02;;;;;;;15.17;10.17;;;;;;;0.54;98.58;100783.72;5104411;28;20106;-58
2023/12/04 05:45:27;;;;;;;13.37;10.13;;;;;;;0.53;98.24;100792.47;5083698;28;20529;-58
2023/12/04 05:47:55;;;;;;;15.60;11.20;;;;;;;0.47;97.96;100782.13;5108731;28;20027;-58
2023/12/04 05:50:20;;;;;;;18.90;11.60;;;;;;;0.48;97.85;100786.47;5105455;28;20027;-58
2023/12/04 05:52:46;;;;;;;15.20;10.33;;;;;;;0.52;98.10;100785.50;5088824;28;20101;-58
2023/12/04 05:55:11;;;;;;;14.87;11.13;;;;;;;0.52;97.59;100771.56;5106424;28;20110;-58
2023/12/04 05:57:39;;;;;;;13.90;10.13;;;;;;;0.53;97.93;100775.91;5105555;28;20387;-58
2023/12/04 06:00:12;;;;;;;13.73;10.47;;;;;;;0.55;98.01;100766.25;5084984;28;20028;-58
2023/12/04 06:02:38;;;;;;;16.40;10.30;;;;;;;0.53;97.42;100755.84;5105022;28;20027;-58
2023/12/04 06:05:07;;;;;;;13.83;10.23;;;;;;;0.59;97.07;100762.66;5083550;28;20476;-58
2023/12/04 06:07:32;;;;;;;14.60;10.43;;;;;;;0.62;97.17;100770.47;5103303;28;20046;-58
2023/12/04 06:09:57;;;;;;;15.27;10.73;;;;;;;0.62;96.65;100762.63;5096563;28;20476;-58
2023/12/04 06:12:23;;;;;;;14.37;10.30;;;;;;;0.61;96.60;100769.59;5092605;28;20024;-58
2023/12/04 06:14:48;;;;;;;17.40;11.70;;;;;;;0.50;96.33;100736.72;5102276;28;20051;-58
2023/12/04 06:17:14;;;;;;;17.10;10.87;;;;;;;0.59;97.00;100745.25;5091352;28;20080;-58
2023/12/04 06:19:39;;;;;;;13.37;10.10;;;;;;;0.58;97.23;100729.56;5102294;27;20111;-58
2023/12/04 06:22:08;;;;;;;14.37;10.30;;;;;;;0.60;96.04;100727.78;5106303;28;20027;-58
2023/12/04 06:24:33;;;;;;;15.23;10.20;;;;;;;0.57;96.28;100733.09;5101580;28;20019;-58
2023/12/04 06:26:59;;;;;;;13.37;9.53;;;;;;;0.55;96.42;100725.25;5093462;28;20535;-58
2023/12/04 06:29:25;;;;;;;14.57;10.47;;;;;;;0.61;95.85;100716.41;5100784;28;20077;-58
2023/12/04 06:31:50;;;;;;;17.00;10.60;;;;;;;0.58;96.26;100717.31;5085400;28;20035;-58
2023/12/04 06:34:16;;;;;;;12.50;9.23;;;;;;;0.60;95.97;100707.69;5102355;28;20040;-58
2023/12/04 06:36:42;;;;;;;14.20;9.73;;;;;;;0.61;96.26;100708.53;5087113;28;20031;-58
2023/12/04 06:39:13;;;;;;;12.60;9.53;;;;;;;0.62;96.38;100710.28;5111803;28;20027;-58
2023/12/04 06:41:43;;;;;;;11.97;9.07;;;;;;;0.62;95.57;100700.69;5078374;28;20066;-58
2023/12/04 06:44:11;;;;;;;15.25;9.90;;;;;;;0.60;95.27;100696.38;5087646;28;20056;-58
2023/12/04 06:46:40;;;;;;;11.30;9.47;;;;;;;0.61;95.11;100698.94;5082762;28;20028;-58
2023/12/04 06:49:06;;;;;;;11.30;8.50;;;;;;;0.55;94.12;100682.53;5102976;28;20045;-58
2023/12/04 06:51:34;;;;;;;13.50;9.90;;;;;;;0.57;94.50;100688.59;5103192;28;20125;-58
2023/12/04 06:54:00;;;;;;;14.27;8.87;;;;;;;0.58;95.00;100706.88;5086959;28;20158;-58
2023/12/04 06:56:25;;;;;;;13.03;9.23;;;;;;;0.59;94.94;100713.84;5088668;28;20112;-58
2023/12/04 06:58:50;;;;;;;14.70;9.37;;;;;;;0.59;94.62;100700.75;5088192;28;20467;-58
2023/12/04 07:01:16;;;;;;;15.53;9.63;;;;;;;0.56;94.34;100699.94;5089269;28;20024;-58
2023/12/04 07:03:41;;;;;;;11.63;8.90;;;;;;;0.51;92.85;100687.00;5091740;28;20065;-58
2023/12/04 07:06:07;;;;;;;11.27;8.53;;;;;;;0.57;92.84;100693.84;5081162;28;20028;-58
2023/12/04 07:08:35;;;;;;;10.03;8.27;;;;;;;0.54;93.75;100680.81;5092853;28;20392;-59
2023/12/04 07:11:00;;;;;;;11.67;9.00;;;;;;;0.57;93.08;100688.59;5104492;28;20028;-58
2023/12/04 07:13:28;;;;;;;11.33;9.17;;;;;;;0.52;93.02;100680.00;5098507;28;20494;-58
2023/12/04 07:15:53;;;;;;;12.97;8.10;;;;;;;0.49;92.53;100682.69;5106834;28;20015;-58
2023/12/04 07:18:19;;;;;;;12.33;8.70;;;;;;;0.53;92.55;100690.44;5095777;28;20418;-58
2023/12/04 07:20:44;;;;;;;14.73;9.67;;;;;;;0.53;91.28;100694.78;5099387;28;20034;-58
2023/12/04 07:23:09;;;;;;;11.67;9.10;;;;;;;0.53;91.97;100690.44;5095676;28;20015;-58
2023/12/04 07:25:35;;;;;;;12.17;9.03;;;;;;;0.54;91.97;100693.91;5099877;28;20022;-58
2023/12/04 07:28:00;;;;;;;10.47;9.33;;;;;;;0.51;91.32;100692.22;5109389;28;20042;-58
2023/12/04 07:30:26;;;;;;;11.47;9.27;;;;;;;0.50;90.88;100687.00;5110914;28;20020;-58
2023/12/04 07:32:53;;;;;;;10.10;8.07;;;;;;;0.54;91.11;100692.16;5101086;28;20023;-58
2023/12/04 07:35:18;;;;;;;10.03;7.97;;;;;;;0.55;91.34;100693.84;5111183;28;20016;-58
2023/12/04 07:37:44;;;;;;;9.83;8.03;;;;;;;0.57;90.04;100699.06;5100370;28;20034;-57
2023/12/04 07:40:10;;;;;;;12.33;8.93;;;;;;;0.55;90.33;100693.84;5098675;28;20019;-59
2023/12/04 07:42:36;;;;;;;12.87;8.60;;;;;;;0.56;89.70;100702.56;5111461;28;20077;-58
2023/12/04 07:45:02;;;;;;;11.10;8.23;;;;;;;0.56;90.20;100692.09;5099115;28;20028;-58
2023/12/04 07:47:27;;;;;;;10.63;8.17;;;;;;;0.56;90.44;100694.72;5098949;28;20093;-58
2023/12/04 07:49:53;;;;;;;10.40;8.30;;;;;;;0.56;89.40;100681.63;5110141;28;20020;-58
2023/12/04 07:52:18;;;;;;;15.77;8.87;;;;;;;0.58;89.75;100695.53;5099837;28;20027;-58
2023/12/04 07:54:44;;;;;;;10.63;7.97;;;;;;;0.57;89.05;100679.00;5110727;28;20103;-58
2023/12/04 07:57:09;;;;;;;12.60;9.30;;;;;;;0.57;88.62;100676.38;5111305;28;20024;-58
2023/12/04 07:59:35;;;;;;;9.43;8.37;;;;;;;0.57;89.17;100673.75;5110510;28;20031;-58
2023/12/04 08:02:00;;;;;;;10.43;8.40;;;;;;;0.59;88.17;100671.97;5073951;28;20027;-58
2023/12/04 08:04:28;;;;;;;11.37;8.17;;;;;;;0.61;86.40;100672.75;5101056;28;20058;-58
2023/12/04 08:06:53;;;;;;;10.73;7.80;;;;;;;0.55;86.42;100659.84;5098612;28;20110;-58
2023/12/04 08:09:19;;;;;;;11.10;9.00;;;;;;;0.64;86.62;100661.38;5109861;28;20098;-58
2023/12/04 08:11:45;;;;;;;11.30;8.97;;;;;;;0.64;86.10;100662.22;5110438;28;20023;-57
2023/12/04 08:14:10;;;;;;;10.13;8.50;;;;;;;0.65;87.71;100658.72;5096835;28;20031;-58
2023/12/04 08:16:36;;;;;;;10.27;8.33;;;;;;;0.61;86.63;100656.22;5092677;28;20026;-57
2023/12/04 08:19:01;;;;;;;8.90;7.97;;;;;;;0.66;86.79;100662.19;5114223;28;20098;-58
2023/12/04 08:21:27;;;;;;;10.10;8.03;;;;;;;0.68;87.26;100660.41;5113709;28;20035;-58
2023/12/04 08:23:52;;;;;;;15.40;8.63;;;;;;;0.68;86.69;100663.03;5095652;28;20031;-57
2023/12/04 08:26:22;;;;;;;13.20;8.73;;;;;;;0.71;86.27;100657.72;5095661;28;20031;-57
2023/12/04 08:28:48;;;;;;;;;;;;;;;0.71;85.92;100652.47;5096276;28;20052;-57
2023/12/04 08:31:14;;;;;;;10.80;8.10;;;;;;;0.66;85.72;100649.13;5113967;28;19911;-58
2023/12/04 08:33:39;;;;;;;9.60;8.03;;;;;;;0.70;85.25;100650.75;5079714;28;20028;-57
2023/12/04 08:36:05;;;;;;;13.83;7.70;;;;;;;0.71;84.73;100649.88;5097093;28;20433;-57
2023/12/04 08:38:33;;;;;;;8.10;7.17;;;;;;;0.72;85.61;100632.41;5096971;28;20467;-57
2023/12/04 08:40:58;;;;;;;11.30;7.97;;;;;;;0.64;85.23;100622.97;5115149;28;20020;-57
2023/12/04 08:43:24;;;;;;;8.97;7.80;;;;;;;0.72;84.43;100628.00;5115110;28;20023;-57
2023/12/04 08:45:49;;;;;;;11.90;8.50;;;;;;;0.73;84.89;100626.25;5096009;28;20027;-57
2023/12/04 08:48:14;;;;;;;9.80;7.80;;;;;;;0.74;84.70;100622.75;5115104;28;20556;-57
2023/12/04 08:50:40;;;;;;;11.43;8.43;;;;;;;0.73;84.15;100615.78;5096664;28;20532;-58
2023/12/04 08:53:05;;;;;;;8.50;7.70;;;;;;;0.73;84.68;100605.31;5115014;28;20023;-58
2023/12/04 08:55:31;;;;;;;11.27;8.33;;;;;;;0.76;84.59;100605.22;5096494;28;20053;-58
2023/12/04 08:57:56;;;;;;;10.13;7.90;;;;;;;0.75;83.88;100609.63;5114597;28;20106;-58
2023/12/04 09:00:22;;;;;;;10.10;8.47;;;;;;;0.76;83.98;100598.22;5095805;28;20114;-58
2023/12/04 09:02:51;;;;;;;8.43;7.27;;;;;;;0.80;84.56;100605.13;5114539;28;20087;-58
2023/12/04 09:05:16;;;;;;;10.87;9.03;;;;;;;0.76;83.40;100598.22;5114608;28;20404;-57
2023/12/04 09:07:44;;;;;;;10.97;8.03;;;;;;;0.82;85.02;100598.06;5096368;28;20024;-58
2023/12/04 09:10:09;;;;;;;8.87;7.77;;;;;;;0.87;83.57;100603.19;5096553;28;20015;-58
2023/12/04 09:12:36;;;;;;;10.23;7.80;;;;;;;0.87;84.25;100604.03;5114528;28;20132;-58
2023/12/04 09:15:02;;;;;;;10.00;8.40;;;;;;;0.90;84.30;100600.50;5114067;28;20433;-58
2023/12/04 09:17:28;;;;;;;9.33;7.50;;;;;;;0.94;83.63;100596.88;5114413;28;20055;-58
2023/12/04 09:19:54;;;;;;;10.30;8.53;;;;;;;0.93;82.62;100595.16;5114131;28;20092;-58
2023/12/04 09:22:19;;;;;;;9.00;7.60;;;;;;;0.94;82.27;100603.88;5096169;28;20066;-57
2023/12/04 09:24:45;;;;;;;10.67;7.43;;;;;;;0.97;83.38;100590.69;5095929;28;20531;-57
2023/12/04 09:27:10;;;;;;;10.43;7.57;;;;;;;0.98;82.73;100585.44;5095822;28;20070;-57
2023/12/04 09:29:36;;;;;;;10.80;7.70;;;;;;;0.99;82.99;100588.91;5112645;28;20488;-57
2023/12/04 09:32:01;;;;;;;10.70;8.47;;;;;;;0.97;83.20;100580.22;5114200;28;20383;-57
2023/12/04 09:34:29;;;;;;;10.10;8.17;;;;;;;1.02;82.98;100599.28;5095779;28;20053;-57
2023/12/04 09:36:57;;;;;;;8.07;7.23;;;;;;;1.02;82.93;100591.44;5114129;28;20027;-57
2023/12/04 09:39:23;;;;;;;11.03;7.30;;;;;;;1.06;82.96;100593.06;5114042;28;20057;-57
2023/12/04 09:41:50;;;;;;;7.93;7.13;;;;;;;1.05;82.64;100586.13;5095535;28;20045;-58
2023/12/04 09:44:16;;;;;;;10.50;7.77;;;;;;;1.11;82.42;100585.94;5095382;28;20494;-58
2023/12/04 09:46:42;;;;;;;10.83;7.97;;;;;;;1.13;82.63;100587.63;5095082;28;20024;-57
2023/12/04 09:49:08;;;;;;;9.37;7.50;;;;;;;1.16;81.98;100591.06;5095701;28;20051;-57
2023/12/04 09:51:33;;;;;;;9.63;7.77;;;;;;;1.15;82.17;100587.59;5113553;28;20051;-57
2023/12/04 09:54:04;;;;;;;10.10;7.37;;;;;;;1.19;81.82;100583.97;5113590;28;20039;-57
2023/12/04 09:56:30;;;;;;;7.33;6.57;;;;;;;1.24;82.26;100586.47;5113907;28;20087;-57
2023/12/04 09:58:59;;;;;;;10.57;7.50;;;;;;;1.23;81.76;100584.72;5095122;28;20023;-57
2023/12/04 10:01:28;;;;;;;10.40;7.18;;;;;;;1.19;81.92;100576.09;5113138;28;20032;-58
2023/12/04 10:03:57;;;;;;;13.30;7.90;;;;;;;1.25;81.97;100580.31;5113251;28;20050;-57
2023/12/04 10:06:26;;;;;;;9.53;7.73;;;;;;;1.24;81.06;100587.31;5113458;28;20448;-57
2023/12/04 10:08:51;;;;;;;14.53;7.63;;;;;;;1.18;81.41;100568.28;5113286;28;20019;-57
2023/12/04 10:11:17;;;;;;;11.23;8.53;;;;;;;1.23;81.56;100567.25;5095193;28;20034;-57
2023/12/04 10:13:42;;;;;;;11.07;8.37;;;;;;;1.27;81.68;100570.66;5113048;28;20062;-57
2023/12/04 10:16:08;;;;;;;10.57;7.73;;;;;;;1.26;82.03;100559.28;5094706;28;20030;-57
2023/12/04 10:18:33;;;;;;;10.57;8.00;;;;;;;1.31;82.26;100562.66;5078167;28;20023;-57
2023/12/04 10:20:59;;;;;;;10.53;7.93;;;;;;;1.34;82.84;100556.47;5094870;28;20057;-58
2023/12/04 10:23:41;;;;;;;8.93;7.50;;;;;;;1.37;81.63;100559.00;5094771;28;20502;-58
2023/12/04 10:26:07;;;;;;;8.73;7.63;;;;;;;1.37;81.91;100545.88;5113273;28;20024;-57
2023/12/04 10:28:34;;;;;;;10.97;8.67;;;;;;;1.44;81.27;100538.69;5094398;28;20027;-58
2023/12/04 10:30:59;;;;;;;12.73;9.10;;;;;;;1.43;81.27;100532.59;5112627;28;20030;-57
2023/12/04 10:33:28;;;;;;;12.23;8.70;;;;;;;1.40;81.21;100526.59;5111789;28;20039;-58
2023/12/04 10:35:55;;;;;;;11.67;9.07;;;;;;;1.46;81.49;100519.41;5111877;28;20399;-58
2023/12/04 10:38:20;;;;;;;15.47;9.43;;;;;;;1.54;81.66;100521.78;5112921;28;20016;-57
2023/12/04 10:40:46;;;;;;;11.53;9.20;;;;;;;1.54;81.49;100525.28;5093857;28;20127;-57
2023/12/04 10:43:16;;;;;;;11.97;9.47;;;;;;;1.53;81.22;100502.59;5094345;28;20026;-57
2023/12/04 10:45:43;;;;;;;10.48;8.85;;;;;;;1.48;80.84;100486.16;5073518;28;20436;-58
2023/12/04 10:48:10;;;;;;;13.57;9.33;;;;;;;1.56;80.86;100507.75;5092479;28;20034;-58
2023/12/04 10:50:40;;;;;;;15.07;9.10;;;;;;;1.60;80.83;100498.00;5092281;28;20028;-58
2023/12/04 10:53:07;;;;;;;13.50;9.40;;;;;;;1.64;80.91;100491.75;5110877;28;20110;-57
2023/12/04 10:55:33;;;;;;;13.63;9.70;;;;;;;1.67;80.23;100483.78;5112100;28;20023;-58
2023/12/04 10:58:03;;;;;;;13.27;9.57;;;;;;;1.72;81.27;100478.41;5093917;28;20920;-57
2023/12/04 11:00:31;;;;;;;15.75;9.77;;;;;;;1.73;80.76;100470.47;5112249;28;20106;-57
2023/12/04 11:03:02;;;;;;;11.43;9.23;;;;;;;1.74;80.19;100468.75;5104676;28;20081;-57
2023/12/04 11:05:28;;;;;;;12.73;9.23;;;;;;;1.83;80.49;100471.06;5102377;28;20033;-57
2023/12/04 11:07:59;;;;;;;12.13;9.95;;;;;;;1.86;80.58;100468.34;5109858;28;20024;-57
2023/12/04 11:10:27;;;;;;;15.82;9.77;;;;;;;1.90;81.05;100459.44;5111900;28;20028;-58
2023/12/04 11:13:23;;;;;;;14.43;10.15;;;;;;;1.95;81.66;100468.03;5087323;28;20028;-57
2023/12/04 11:15:52;;;;;;;12.75;9.75;;;;;;;1.95;80.95;100464.56;5110828;28;20019;-57